createdAt,value
2022-08-28T00:02:33.918Z,13.90
2022-08-28T00:07:36.969Z,13.40
2022-08-28T00:12:39.878Z,15.80
2022-08-28T00:17:42.675Z,13.70
2022-08-28T00:22:45.733Z,16.10
2022-08-28T00:27:55.325Z,14.00
2022-08-28T00:33:05.908Z,17.40
2022-08-28T00:38:11.254Z,13.40
2022-08-28T00:43:38.598Z,13.90
2022-08-28T00:48:41.528Z,14.20
2022-08-28T00:53:44.349Z,14.90
2022-08-28T00:58:47.975Z,14.30
2022-08-28T01:03:51.031Z,15.60
2022-08-28T01:08:54.545Z,12.40
2022-08-28T01:13:57.838Z,13.50
2022-08-28T01:19:07.737Z,14.70
2022-08-28T01:24:14.870Z,13.10
2022-08-28T01:29:17.747Z,11.50
2022-08-28T01:34:21.287Z,15.90
2022-08-28T01:39:25.521Z,13.70
2022-08-28T01:44:28.344Z,13.20
2022-08-28T01:49:31.103Z,13.70
2022-08-28T01:54:34.292Z,13.90
2022-08-28T01:59:38.939Z,13.50
2022-08-28T02:04:47.575Z,15.10
2022-08-28T02:09:51.720Z,17.30
2022-08-28T02:14:55.186Z,13.50
2022-08-28T02:19:59.274Z,12.40
2022-08-28T02:25:02.219Z,12.60
2022-08-28T02:30:06.691Z,14.70
2022-08-28T02:35:11.916Z,12.90
2022-08-28T02:40:16.124Z,14.60
2022-08-28T02:45:19.887Z,14.80
2022-08-28T02:50:24.084Z,12.70
2022-08-28T02:55:31.294Z,13.80
2022-08-28T03:00:36.487Z,14.10
2022-08-28T03:05:39.313Z,12.80
2022-08-28T03:10:42.151Z,13.80
2022-08-28T03:15:46.051Z,15.60
2022-08-28T03:20:55.962Z,11.80
2022-08-28T03:26:02.717Z,13.30
2022-08-28T03:31:07.517Z,13.20
2022-08-28T03:36:12.274Z,12.40
2022-08-28T03:41:17.996Z,13.20
2022-08-28T03:46:23.839Z,14.30
2022-08-28T03:51:30.621Z,16.30
2022-08-28T03:56:33.604Z,14.10
2022-08-28T04:01:38.328Z,12.60
2022-08-28T04:06:41.535Z,14.20
2022-08-28T04:11:44.324Z,12.60
2022-08-28T04:16:47.270Z,18.90
2022-08-28T04:21:50.049Z,15.60
2022-08-28T04:26:53.668Z,15.90
2022-08-28T04:31:58.310Z,14.00
2022-08-28T04:37:01.169Z,13.10
2022-08-28T04:42:04.207Z,15.10
2022-08-28T04:47:07.024Z,15.00
2022-08-28T04:52:10.751Z,20.70
2022-08-28T04:57:13.554Z,14.10
2022-08-28T05:02:16.402Z,14.10
2022-08-28T05:07:19.336Z,14.90
2022-08-28T05:12:22.187Z,16.80
2022-08-28T05:17:24.968Z,15.10
2022-08-28T05:22:32.529Z,14.90
2022-08-28T05:27:35.499Z,18.10
2022-08-28T05:32:38.239Z,11.90
2022-08-28T05:37:40.983Z,13.40
2022-08-28T05:42:45.165Z,13.10
2022-08-28T05:47:48.115Z,15.70
2022-08-28T05:52:50.936Z,13.90
2022-08-28T05:57:53.738Z,14.70
2022-08-28T06:02:56.568Z,11.80
2022-08-28T06:07:59.499Z,12.70
2022-08-28T06:13:02.631Z,13.40
2022-08-28T06:18:05.961Z,11.90
2022-08-28T06:23:10.176Z,12.80
2022-08-28T06:28:14.907Z,15.40
2022-08-28T06:33:17.972Z,14.00
2022-08-28T06:38:24.057Z,14.20
2022-08-28T06:43:28.868Z,12.60
2022-08-28T06:48:31.768Z,14.20
2022-08-28T06:53:34.611Z,19.10
2022-08-28T06:58:40.737Z,13.40
2022-08-28T07:03:45.054Z,12.20
2022-08-28T07:08:48.169Z,11.40
2022-08-28T07:13:52.756Z,14.10
2022-08-28T07:18:55.755Z,12.00
2022-08-28T07:23:58.696Z,14.30
2022-08-28T07:29:10.465Z,14.30
2022-08-28T07:34:16.406Z,14.80
2022-08-28T07:39:19.414Z,18.30
2022-08-28T07:44:40.909Z,14.30
2022-08-28T07:49:44.047Z,12.70
2022-08-28T07:54:47.547Z,12.90
2022-08-28T07:59:52.409Z,12.60
2022-08-28T08:04:55.485Z,14.80
2022-08-28T08:09:58.524Z,17.50
2022-08-28T08:15:01.403Z,15.30
2022-08-28T08:20:06.172Z,13.30
2022-08-28T08:25:09.772Z,16.20
2022-08-28T08:30:12.773Z,12.40
2022-08-28T08:35:17.405Z,13.30
2022-08-28T08:40:20.844Z,11.10
2022-08-28T08:45:26.643Z,10.40
2022-08-28T08:50:33.000Z,14.90
2022-08-28T08:55:43.012Z,12.70
2022-08-28T09:01:02.059Z,11.30
2022-08-28T09:06:05.999Z,12.70
2022-08-28T09:11:56.574Z,10.30
2022-08-28T09:17:00.925Z,12.30
2022-08-28T09:22:03.760Z,9.20
2022-08-28T09:27:28.584Z,12.60
2022-08-28T09:32:38.807Z,13.40
2022-08-28T09:37:42.930Z,9.70
2022-08-28T09:43:26.228Z,11.00
2022-08-28T09:48:40.852Z,11.40
2022-08-28T09:53:53.581Z,16.00
2022-08-28T09:59:07.825Z,10.00
2022-08-28T10:04:55.192Z,10.50
2022-08-28T10:10:18.219Z,12.50
2022-08-28T10:15:53.837Z,12.20
2022-08-28T10:21:22.221Z,10.70
2022-08-28T10:27:02.568Z,11.90
2022-08-28T10:32:21.092Z,11.80
2022-08-28T10:37:42.376Z,11.80
2022-08-28T10:42:59.957Z,10.30
2022-08-28T10:48:30.117Z,10.90
2022-08-28T10:53:46.353Z,8.30
2022-08-28T10:58:51.919Z,8.00
2022-08-28T11:03:54.840Z,8.00
2022-08-28T11:09:00.079Z,10.30
2022-08-28T11:14:02.840Z,8.30
2022-08-28T11:19:33.551Z,6.70
2022-08-28T11:24:43.758Z,6.90
2022-08-28T11:30:29.457Z,10.90
2022-08-28T11:35:38.420Z,7.30
2022-08-28T11:40:44.162Z,5.80
2022-08-28T11:45:47.358Z,7.10
2022-08-28T11:56:40.978Z,8.50
2022-08-28T12:01:43.868Z,7.70
2022-08-28T12:06:49.850Z,8.20
2022-08-28T12:11:58.230Z,9.60
2022-08-28T12:17:05.079Z,6.30
2022-08-28T12:22:20.613Z,11.20
2022-08-28T12:27:24.156Z,10.50
2022-08-28T12:33:00.102Z,7.40
2022-08-28T12:38:05.792Z,9.50
2022-08-28T12:43:11.675Z,11.00
2022-08-28T12:48:23.681Z,6.70
2022-08-28T12:53:26.921Z,8.00
2022-08-28T12:58:37.644Z,8.60
2022-08-28T13:03:50.453Z,7.60
2022-08-28T13:09:00.695Z,11.00
2022-08-28T13:14:04.505Z,9.20
2022-08-28T13:19:08.115Z,12.10
2022-08-28T13:24:26.307Z,7.30
2022-08-28T13:29:29.163Z,7.10
2022-08-28T13:34:37.432Z,9.70
2022-08-28T13:39:40.165Z,9.80
2022-08-28T13:44:53.972Z,10.80
2022-08-28T13:49:57.028Z,9.10
2022-08-28T13:55:01.077Z,7.50
2022-08-28T14:00:06.467Z,6.10
2022-08-28T14:05:09.684Z,7.30
2022-08-28T14:10:12.926Z,9.90
2022-08-28T14:15:16.261Z,8.40
2022-08-28T14:20:19.854Z,9.10
2022-08-28T14:25:22.625Z,8.90
2022-08-28T14:30:26.155Z,10.30
2022-08-28T14:35:28.880Z,7.10
2022-08-28T14:40:31.913Z,8.80
2022-08-28T14:45:41.896Z,9.00
2022-08-28T14:50:48.072Z,9.70
2022-08-28T14:55:50.835Z,10.80
2022-08-28T15:00:53.709Z,8.70
2022-08-28T15:06:08.082Z,10.80
2022-08-28T15:11:18.441Z,7.80
2022-08-28T15:16:32.612Z,11.80
2022-08-28T15:21:38.496Z,11.90
2022-08-28T15:26:41.700Z,8.70
2022-08-28T15:31:46.627Z,13.00
2022-08-28T15:36:54.788Z,9.50
2022-08-28T15:41:59.235Z,9.30
2022-08-28T15:47:02.433Z,9.10
2022-08-28T15:52:05.383Z,7.40
2022-08-28T15:57:08.141Z,8.40
2022-08-28T16:02:12.547Z,8.00
2022-08-28T16:07:16.040Z,10.00
2022-08-28T16:12:18.950Z,8.00
2022-08-28T16:17:21.745Z,8.70
2022-08-28T16:22:24.605Z,7.00
2022-08-28T16:27:27.495Z,8.60
2022-08-28T16:32:30.301Z,9.10
2022-08-28T16:37:39.799Z,12.90
2022-08-28T16:42:51.741Z,9.20
2022-08-28T16:47:55.922Z,8.30
2022-08-28T16:53:03.547Z,9.30
2022-08-28T16:58:09.226Z,9.50
2022-08-28T17:03:12.175Z,9.40
2022-08-28T17:08:15.156Z,11.50
2022-08-28T17:13:17.915Z,14.00
2022-08-28T17:18:20.786Z,7.60
2022-08-28T17:23:23.663Z,11.70
2022-08-28T17:28:26.395Z,7.50
2022-08-28T17:33:30.016Z,9.40
2022-08-28T17:38:33.533Z,12.10
2022-08-28T17:43:37.476Z,7.10
2022-08-28T17:48:41.865Z,8.30
2022-08-28T17:53:57.555Z,7.20
2022-08-28T17:59:00.512Z,7.20
2022-08-28T18:04:05.209Z,6.60
2022-08-28T18:09:08.516Z,8.40
2022-08-28T18:14:11.381Z,6.40
2022-08-28T18:19:14.171Z,6.80
2022-08-28T18:24:17.313Z,5.80
2022-08-28T18:29:22.175Z,8.20
2022-08-28T18:34:25.863Z,5.60
2022-08-28T18:39:34.821Z,4.30
2022-08-28T18:44:37.573Z,5.20
2022-08-28T18:49:42.287Z,4.50
2022-08-28T18:54:45.064Z,4.10
2022-08-28T18:59:49.247Z,5.70
2022-08-28T19:04:51.992Z,3.40
2022-08-28T19:09:57.973Z,4.50
2022-08-28T19:15:00.801Z,3.50
2022-08-28T19:20:10.933Z,4.60
2022-08-28T19:25:27.765Z,3.30
2022-08-28T19:30:33.381Z,3.10
2022-08-28T19:35:36.473Z,3.90
2022-08-28T19:40:39.967Z,4.20
2022-08-28T19:45:43.675Z,3.50
2022-08-28T19:50:46.385Z,4.70
2022-08-28T19:55:49.241Z,3.20
2022-08-28T20:00:52.829Z,2.60
2022-08-28T20:05:56.064Z,2.00
2022-08-28T20:10:59.463Z,2.50
2022-08-28T20:16:05.361Z,2.90
2022-08-28T20:21:12.044Z,4.50
2022-08-28T20:26:14.807Z,2.20
2022-08-28T20:31:17.791Z,2.80
2022-08-28T20:36:21.547Z,2.60
2022-08-28T20:41:24.548Z,3.20
2022-08-28T20:46:27.420Z,2.80
2022-08-28T20:51:49.228Z,2.50
2022-08-28T20:56:52.238Z,2.40
2022-08-28T21:01:56.227Z,3.60
2022-08-28T21:06:59.134Z,2.30
2022-08-28T21:12:03.079Z,2.60
2022-08-28T21:17:06.006Z,2.20
2022-08-28T21:22:09.087Z,2.40
2022-08-28T21:27:11.948Z,2.60
2022-08-28T21:32:15.100Z,2.30
2022-08-28T21:37:17.934Z,3.00
2022-08-28T21:42:20.742Z,2.20
2022-08-28T21:47:23.595Z,5.30
2022-08-28T21:52:29.867Z,5.00
2022-08-28T21:57:32.791Z,4.50
2022-08-28T22:02:35.674Z,2.60
2022-08-28T22:07:40.444Z,5.40
2022-08-28T22:12:43.123Z,4.60
2022-08-28T22:17:45.887Z,4.20
2022-08-28T22:23:07.667Z,4.50
2022-08-28T22:28:10.787Z,3.00
2022-08-28T22:33:13.719Z,3.70
2022-08-28T22:38:16.559Z,2.60
2022-08-28T22:43:19.479Z,4.20
2022-08-28T22:48:22.227Z,3.10
2022-08-28T22:53:24.988Z,4.50
2022-08-28T22:58:32.269Z,4.10
2022-08-28T23:03:35.252Z,3.40
2022-08-28T23:08:38.177Z,7.50
2022-08-28T23:13:41.207Z,5.60
2022-08-28T23:19:06.662Z,5.10
2022-08-28T23:24:07.362Z,5.10
2022-08-28T23:29:10.512Z,5.80
2022-08-28T23:34:13.351Z,6.80
2022-08-28T23:39:16.463Z,8.60
2022-08-28T23:44:20.599Z,9.50
2022-08-28T23:49:26.840Z,8.50
2022-08-28T23:54:29.958Z,8.00
2022-08-28T23:59:32.717Z,9.40
